Saiq, Oman
Current Conditions -  °F | °C
As of 1:50 PM on Friday 24 Oct 2014 (Local Time) from EQMN Reporting Station
Few Clouds Few Clouds  
Wind Chill: 93°   Ceiling: Unl
Heat Index: 96°   Visibility: 6mi
Dew Point: 66°   Wind: 9mph
Humidity: 41%   Direction: 80°E
Pressure: 29.83"   Gusts: NA
Location:  23.07°N, 57.63°E
Report Text: EQMN 240950Z 08008KT 9999 FEW040 34/19 Q1010 BLU NOSIG
Loading
Personal Weather Stations






























Interactive Weather Map
Tropical Storm Tracking
New forecast layout! Learn more

10-Day Weather Forecast

Advertisements
Track Severe Weather on mobile